Time;durP1;ratioP1;P1;durP2;ratioP2;P2;SDS_P1;SDS_P2;PMS_P1;PMS_P2;Temp;Humidity;BMP_temperature;BMP_pressure;BME280_temperature;BME280_humidity;BME280_pressure;Samples;Min_cycle;Max_cycle;Signal;HPM_P1;HPM_P2
2022/11/24 00:01:42;;;;;;;32.83;5.47;;;;;;;;;;6245166;23;20008;-60
2022/11/24 00:04:11;;;;;;;32.95;5.28;;;;;;;;;;6245981;22;20027;-60
2022/11/24 00:06:37;;;;;;;35.42;4.50;;;;;;;;;;6245530;23;20425;-59
2022/11/24 00:09:04;;;;;;;36.78;4.47;;;;;;;;;;6245952;23;20011;-59
2022/11/24 00:11:34;;;;;;;38.95;6.32;;;;;;;;;;6245428;23;20405;-59
2022/11/24 00:14:01;;;;;;;28.42;6.50;;;;;;;;;;6245453;23;20012;-59
2022/11/24 00:16:28;;;;;;;26.83;4.70;;;;;;;;;;6245930;23;20000;-59
2022/11/24 00:18:55;;;;;;;30.42;5.35;;;;;;;;;;6245901;23;20008;-59
2022/11/24 00:21:22;;;;;;;22.48;5.50;;;;;;;;;;6245522;23;20189;-59
2022/11/24 00:23:49;;;;;;;29.40;5.10;;;;;;;;;;6245467;23;20008;-59
2022/11/24 00:26:16;;;;;;;31.52;5.85;;;;;;;;;;6245825;23;20000;-59
2022/11/24 00:28:43;;;;;;;43.83;7.88;;;;;;;;;;6245123;23;20019;-59
2022/11/24 00:31:17;;;;;;;31.98;5.38;;;;;;;;;;6245449;23;20008;-59
2022/11/24 00:33:43;;;;;;;39.70;5.13;;;;;;;;;;6245357;23;20378;-59
2022/11/24 00:36:09;;;;;;;29.15;5.43;;;;;;;;;;6246097;23;20011;-59
2022/11/24 00:38:35;;;;;;;30.05;5.65;;;;;;;;;;6245494;23;20030;-59
2022/11/24 00:41:01;;;;;;;26.70;4.90;;;;;;;;;;6245821;23;20008;-59
2022/11/24 00:43:28;;;;;;;35.25;5.53;;;;;;;;;;6245237;23;20026;-59
2022/11/24 00:45:54;;;;;;;27.75;6.07;;;;;;;;;;6245534;23;20046;-59
2022/11/24 00:48:20;;;;;;;32.17;6.22;;;;;;;;;;6245899;23;20061;-59
2022/11/24 00:50:54;;;;;;;31.77;6.40;;;;;;;;;;6245539;23;20379;-59
2022/11/24 00:53:20;;;;;;;34.08;5.10;;;;;;;;;;6245531;23;20039;-59
2022/11/24 00:55:50;;;;;;;31.17;5.13;;;;;;;;;;6245254;23;20712;-59
2022/11/24 00:58:16;;;;;;;32.47;6.10;;;;;;;;;;6245228;23;20008;-59
2022/11/24 01:00:42;;;;;;;41.35;5.07;;;;;;;;;;6245169;23;20730;-59
2022/11/24 01:03:08;;;;;;;30.83;4.63;;;;;;;;;;6245223;23;20463;-59
2022/11/24 01:05:38;;;;;;;22.73;4.75;;;;;;;;;;6245083;23;20363;-59
2022/11/24 01:08:04;;;;;;;32.72;6.13;;;;;;;;;;6245137;23;20008;-59
2022/11/24 01:10:31;;;;;;;25.65;4.32;;;;;;;;;;6245364;23;20008;-59
2022/11/24 01:12:57;;;;;;;36.28;5.88;;;;;;;;;;6244971;23;20008;-59
2022/11/24 01:15:23;;;;;;;28.48;5.03;;;;;;;;;;6245254;23;20017;-59
2022/11/24 01:17:49;;;;;;;26.38;5.53;;;;;;;;;;6244944;23;20008;-59
2022/11/24 01:20:15;;;;;;;25.88;4.65;;;;;;;;;;6245342;23;20000;-59
2022/11/24 01:22:41;;;;;;;34.08;4.70;;;;;;;;;;6244659;23;20011;-59
2022/11/24 01:25:08;;;;;;;24.08;4.50;;;;;;;;;;6244801;23;20000;-59
2022/11/24 01:27:34;;;;;;;27.13;4.10;;;;;;;;;;6244715;23;20001;-59
2022/11/24 01:30:01;;;;;;;28.13;4.97;;;;;;;;;;6245137;23;20334;-59
2022/11/24 01:32:27;;;;;;;27.20;5.28;;;;;;;;;;6245224;23;20019;-59
2022/11/24 01:34:53;;;;;;;36.17;5.97;;;;;;;;;;6244609;23;20054;-59
2022/11/24 01:37:19;;;;;;;28.65;5.07;;;;;;;;;;6244811;23;20001;-59
2022/11/24 01:39:45;;;;;;;25.92;5.25;;;;;;;;;;6244590;23;20001;-59
2022/11/24 01:42:11;;;;;;;24.38;4.03;;;;;;;;;;6244693;23;20011;-59
2022/11/24 01:44:37;;;;;;;27.45;5.95;;;;;;;;;;6244873;23;20007;-59
2022/11/24 01:47:17;;;;;;;30.83;5.60;;;;;;;;;;6244954;23;20071;-59
2022/11/24 01:49:48;;;;;;;39.38;6.25;;;;;;;;;;6244529;23;20000;-59
2022/11/24 01:52:21;;;;;;;44.05;6.65;;;;;;;;;;6245062;23;20008;-59
2022/11/24 01:54:56;;;;;;;32.25;6.38;;;;;;;;;;6245148;23;20008;-59
2022/11/24 01:57:30;;;;;;;34.92;6.22;;;;;;;;;;6244490;23;20008;-59
2022/11/24 01:59:59;;;;;;;38.63;6.10;;;;;;;;;;6244347;22;20426;-59
2022/11/24 02:02:27;;;;;;;25.38;5.00;;;;;;;;;;6245169;23;20020;-59
2022/11/24 02:04:54;;;;;;;39.40;5.18;;;;;;;;;;6244426;23;20326;-59
2022/11/24 02:07:20;;;;;;;40.85;7.43;;;;;;;;;;6245097;23;20122;-59
2022/11/24 02:09:51;;;;;;;29.10;5.57;;;;;;;;;;6244377;23;20010;-59
2022/11/24 02:12:17;;;;;;;39.50;6.85;;;;;;;;;;6245160;23;20032;-59
2022/11/24 02:14:44;;;;;;;31.38;5.90;;;;;;;;;;6244557;23;20000;-59
2022/11/24 02:17:10;;;;;;;26.52;5.80;;;;;;;;;;6244938;23;20075;-59
2022/11/24 02:19:39;;;;;;;38.88;7.05;;;;;;;;;;6243215;23;20001;-59
2022/11/24 02:22:14;;;;;;;36.83;7.25;;;;;;;;;;6244009;23;20087;-60
2022/11/24 02:24:47;;;;;;;49.30;6.57;;;;;;;;;;6244666;23;20008;-59
2022/11/24 02:27:13;;;;;;;30.70;6.05;;;;;;;;;;6244656;23;20057;-59
2022/11/24 02:29:40;;;;;;;41.75;6.30;;;;;;;;;;6244628;23;20001;-59
2022/11/24 02:32:07;;;;;;;41.63;6.95;;;;;;;;;;6244480;23;20004;-59
2022/11/24 02:34:33;;;;;;;29.02;6.38;;;;;;;;;;6244735;23;20000;-59
2022/11/24 02:36:59;;;;;;;45.35;6.10;;;;;;;;;;6245538;23;20445;-59
2022/11/24 02:39:25;;;;;;;33.95;5.20;;;;;;;;;;6246262;23;20004;-59
2022/11/24 02:41:53;;;;;;;44.78;7.90;;;;;;;;;;6246463;23;20015;-59
2022/11/24 02:44:21;;;;;;;25.38;5.10;;;;;;;;;;6246817;23;20003;-59
2022/11/24 02:46:47;;;;;;;31.52;5.55;;;;;;;;;;6246806;23;20004;-59
2022/11/24 02:49:15;;;;;;;33.83;5.13;;;;;;;;;;6246653;23;20326;-59
2022/11/24 02:51:41;;;;;;;35.78;5.50;;;;;;;;;;6246853;22;20038;-59
2022/11/24 02:54:07;;;;;;;30.58;5.10;;;;;;;;;;6246122;23;20004;-59
2022/11/24 02:56:33;;;;;;;32.95;6.65;;;;;;;;;;6246769;23;20004;-59
2022/11/24 02:58:59;;;;;;;31.77;5.22;;;;;;;;;;6246640;23;20000;-59
2022/11/24 03:01:25;;;;;;;29.08;6.70;;;;;;;;;;6246702;23;20004;-59
2022/11/24 03:03:51;;;;;;;28.92;4.90;;;;;;;;;;6246336;23;20107;-59
2022/11/24 03:06:17;;;;;;;36.97;6.35;;;;;;;;;;6246427;23;20008;-59
2022/11/24 03:08:44;;;;;;;41.08;6.38;;;;;;;;;;6246249;23;20335;-59
2022/11/24 03:11:10;;;;;;;34.00;5.63;;;;;;;;;;6246355;22;20011;-59
2022/11/24 03:13:37;;;;;;;32.72;6.05;;;;;;;;;;6246716;22;20057;-59
2022/11/24 03:16:03;;;;;;;38.88;5.55;;;;;;;;;;6246229;23;20012;-59
2022/11/24 03:18:29;;;;;;;29.80;5.32;;;;;;;;;;6246684;23;20008;-59
2022/11/24 03:20:59;;;;;;;32.22;6.43;;;;;;;;;;6246296;23;20008;-59
2022/11/24 03:23:25;;;;;;;49.85;6.60;;;;;;;;;;6246001;23;20008;-59
2022/11/24 03:25:51;;;;;;;44.92;6.45;;;;;;;;;;6246234;23;20004;-59
2022/11/24 03:28:17;;;;;;;43.05;6.93;;;;;;;;;;6246449;23;20027;-59
2022/11/24 03:30:43;;;;;;;42.97;6.63;;;;;;;;;;6246237;23;20054;-59
2022/11/24 03:33:09;;;;;;;40.10;5.88;;;;;;;;;;6246453;23;20026;-59
2022/11/24 03:35:35;;;;;;;44.92;6.25;;;;;;;;;;6246080;23;20015;-59
2022/11/24 03:38:02;;;;;;;43.15;8.20;;;;;;;;;;6245850;23;20012;-59
2022/11/24 03:40:28;;;;;;;35.28;5.82;;;;;;;;;;6246123;22;20008;-59
2022/11/24 03:42:54;;;;;;;40.15;6.35;;;;;;;;;;6246349;23;20469;-59
2022/11/24 03:45:20;;;;;;;39.17;7.20;;;;;;;;;;6246335;23;20004;-59
2022/11/24 03:47:50;;;;;;;50.80;6.45;;;;;;;;;;6246195;23;20468;-59
2022/11/24 03:50:16;;;;;;;39.60;6.32;;;;;;;;;;6245694;23;20062;-59
2022/11/24 03:52:42;;;;;;;39.03;6.20;;;;;;;;;;6245834;23;20028;-59
2022/11/24 03:55:08;;;;;;;40.17;6.25;;;;;;;;;;6245863;23;20513;-59
2022/11/24 03:57:34;;;;;;;40.80;7.63;;;;;;;;;;6246327;23;20010;-59
2022/11/24 04:00:00;;;;;;;45.72;7.57;;;;;;;;;;6245769;23;20036;-59
2022/11/24 04:02:26;;;;;;;41.17;6.82;;;;;;;;;;6246309;23;20011;-59
2022/11/24 04:04:53;;;;;;;45.08;8.73;;;;;;;;;;6245668;23;20016;-59
2022/11/24 04:07:19;;;;;;;45.80;8.10;;;;;;;;;;6245475;23;20000;-59
2022/11/24 04:09:45;;;;;;;37.78;6.72;;;;;;;;;;6246010;23;20053;-59
2022/11/24 04:14:55;;;;;;;46.17;6.65;;;;;;;;;;6246107;23;20008;-59
2022/11/24 04:17:22;;;;;;;44.72;6.50;;;;;;;;;;6245966;23;20442;-59
2022/11/24 04:19:48;;;;;;;58.40;8.90;;;;;;;;;;6245772;23;20008;-59
2022/11/24 04:22:14;;;;;;;55.50;7.22;;;;;;;;;;6245249;23;20008;-59
2022/11/24 04:24:40;;;;;;;44.80;7.20;;;;;;;;;;6246104;23;20014;-59
2022/11/24 04:27:06;;;;;;;42.05;7.47;;;;;;;;;;6245823;23;20031;-59
2022/11/24 04:29:32;;;;;;;45.58;7.53;;;;;;;;;;6245631;23;20485;-59
2022/11/24 04:31:58;;;;;;;43.67;6.50;;;;;;;;;;6245950;23;20023;-59
2022/11/24 04:34:24;;;;;;;42.40;6.57;;;;;;;;;;6245495;23;20039;-59
2022/11/24 04:36:50;;;;;;;42.75;7.97;;;;;;;;;;6245518;23;20023;-59
2022/11/24 04:39:16;;;;;;;41.78;7.63;;;;;;;;;;6245683;23;20337;-59
2022/11/24 04:41:42;;;;;;;37.50;6.00;;;;;;;;;;6245512;23;20000;-59
2022/11/24 04:44:08;;;;;;;48.28;7.03;;;;;;;;;;6245469;23;20086;-59
2022/11/24 04:46:35;;;;;;;43.90;8.63;;;;;;;;;;6245804;23;20064;-59
2022/11/24 04:49:01;;;;;;;42.42;8.20;;;;;;;;;;6245726;23;20030;-59
2022/11/24 04:51:27;;;;;;;41.72;5.85;;;;;;;;;;6245234;23;20045;-59
2022/11/24 04:53:53;;;;;;;40.55;6.00;;;;;;;;;;6245480;23;20493;-59
2022/11/24 04:56:19;;;;;;;45.22;6.72;;;;;;;;;;6245163;23;20004;-59
2022/11/24 04:58:47;;;;;;;46.67;6.53;;;;;;;;;;6245660;23;20004;-59
2022/11/24 05:01:13;;;;;;;31.73;6.22;;;;;;;;;;6244942;22;20007;-59
2022/11/24 05:03:40;;;;;;;29.65;6.07;;;;;;;;;;6245603;23;20004;-59
2022/11/24 05:06:07;;;;;;;40.92;6.03;;;;;;;;;;6244574;23;20048;-59
2022/11/24 05:08:34;;;;;;;32.20;6.57;;;;;;;;;;6245687;22;20322;-59
2022/11/24 05:11:04;;;;;;;38.13;6.70;;;;;;;;;;6245595;23;20031;-59
2022/11/24 05:13:30;;;;;;;36.85;6.35;;;;;;;;;;6245478;23;20016;-59
2022/11/24 05:15:56;;;;;;;40.63;5.82;;;;;;;;;;6245360;23;20007;-59
2022/11/24 05:18:22;;;;;;;48.72;7.70;;;;;;;;;;6244781;22;20012;-59
2022/11/24 05:20:48;;;;;;;32.60;5.50;;;;;;;;;;6245321;23;20035;-59
2022/11/24 05:23:15;;;;;;;39.13;5.82;;;;;;;;;;6245154;23;20560;-59
2022/11/24 05:25:41;;;;;;;51.63;8.43;;;;;;;;;;6245041;23;20118;-59
2022/11/24 05:28:11;;;;;;;48.78;7.00;;;;;;;;;;6245242;22;20098;-59
2022/11/24 05:30:38;;;;;;;53.55;9.88;;;;;;;;;;6245231;23;20010;-59
2022/11/24 05:33:05;;;;;;;29.77;5.80;;;;;;;;;;6244970;23;20337;-59
2022/11/24 05:35:31;;;;;;;45.33;5.75;;;;;;;;;;6244258;23;20032;-59
2022/11/24 05:37:58;;;;;;;38.55;6.80;;;;;;;;;;6244560;23;20008;-59
2022/11/24 05:40:24;;;;;;;46.85;6.93;;;;;;;;;;6244186;23;20054;-59
2022/11/24 05:42:50;;;;;;;43.50;8.05;;;;;;;;;;6244651;23;20392;-59
2022/11/24 05:45:18;;;;;;;47.38;8.00;;;;;;;;;;6244580;23;20000;-59
2022/11/24 05:47:44;;;;;;;54.90;6.43;;;;;;;;;;6244546;22;20377;-59
2022/11/24 05:50:11;;;;;;;39.22;6.65;;;;;;;;;;6244581;23;20008;-59
2022/11/24 05:52:37;;;;;;;36.53;6.03;;;;;;;;;;6244586;23;20023;-59
2022/11/24 05:55:04;;;;;;;53.35;7.68;;;;;;;;;;6244371;23;19997;-59
2022/11/24 05:57:30;;;;;;;42.20;8.95;;;;;;;;;;6244594;23;20008;-59
2022/11/24 05:59:57;;;;;;;46.60;7.13;;;;;;;;;;6244434;23;20032;-59
2022/11/24 06:02:23;;;;;;;44.42;7.53;;;;;;;;;;6243803;23;20000;-59
2022/11/24 06:04:49;;;;;;;41.67;6.28;;;;;;;;;;6244302;23;20012;-59
2022/11/24 06:07:15;;;;;;;35.67;5.60;;;;;;;;;;6244533;23;20004;-59
2022/11/24 06:09:42;;;;;;;43.58;6.18;;;;;;;;;;6244356;23;20358;-59
2022/11/24 06:12:09;;;;;;;32.17;6.60;;;;;;;;;;6244346;22;20004;-59
2022/11/24 06:14:35;;;;;;;36.38;5.97;;;;;;;;;;6244346;23;20061;-60
2022/11/24 06:17:01;;;;;;;41.22;6.35;;;;;;;;;;6244489;23;20004;-59
2022/11/24 06:19:27;;;;;;;35.17;5.70;;;;;;;;;;6243541;23;20404;-59
2022/11/24 06:21:53;;;;;;;48.40;9.93;;;;;;;;;;6243886;23;20406;-59
2022/11/24 06:24:19;;;;;;;34.10;5.25;;;;;;;;;;6243752;23;20123;-59
2022/11/24 06:26:45;;;;;;;44.25;7.80;;;;;;;;;;6244534;23;20004;-59
2022/11/24 06:29:11;;;;;;;39.05;6.03;;;;;;;;;;6242689;23;20354;-60
2022/11/24 06:31:37;;;;;;;23.50;5.32;;;;;;;;;;6243200;23;20008;-59
2022/11/24 06:34:07;;;;;;;45.55;6.97;;;;;;;;;;6243479;23;20434;-60
2022/11/24 06:36:33;;;;;;;36.70;5.45;;;;;;;;;;6242815;23;20004;-66
2022/11/24 06:39:02;;;;;;;33.30;5.47;;;;;;;;;;6243017;23;20011;-60
2022/11/24 06:41:28;;;;;;;38.50;5.72;;;;;;;;;;6243700;23;20031;-60
2022/11/24 06:43:55;;;;;;;48.20;8.32;;;;;;;;;;6244052;23;20438;-60
2022/11/24 06:46:21;;;;;;;40.50;7.10;;;;;;;;;;6244309;23;20011;-59
2022/11/24 06:48:47;;;;;;;37.58;6.32;;;;;;;;;;6244759;22;20028;-59
2022/11/24 06:51:14;;;;;;;51.58;7.03;;;;;;;;;;6244489;23;20058;-59
2022/11/24 06:53:40;;;;;;;34.15;6.40;;;;;;;;;;6244010;23;20260;-60
2022/11/24 06:56:07;;;;;;;48.58;6.75;;;;;;;;;;6244201;23;20430;-60
2022/11/24 06:58:33;;;;;;;31.00;6.20;;;;;;;;;;6243593;23;20464;-60
2022/11/24 07:00:59;;;;;;;41.50;6.35;;;;;;;;;;6243817;23;20446;-60
2022/11/24 07:03:25;;;;;;;40.33;6.40;;;;;;;;;;6244454;23;20000;-59
2022/11/24 07:05:58;;;;;;;29.20;4.70;;;;;;;;;;6244091;23;20023;-60
2022/11/24 07:08:25;;;;;;;45.15;7.60;;;;;;;;;;6244778;22;20311;-60
2022/11/24 07:10:51;;;;;;;44.55;6.93;;;;;;;;;;6244570;23;20342;-60
2022/11/24 07:13:21;;;;;;;37.78;5.55;;;;;;;;;;6242082;22;20091;-63
2022/11/24 07:15:47;;;;;;;39.63;5.90;;;;;;;;;;6242027;23;20008;-60
2022/11/24 07:18:13;;;;;;;32.42;6.43;;;;;;;;;;6243032;23;20481;-60
2022/11/24 07:20:39;;;;;;;43.78;6.10;;;;;;;;;;6242777;23;20059;-60
2022/11/24 07:23:05;;;;;;;39.35;6.10;;;;;;;;;;6243042;23;20004;-60
2022/11/24 07:25:31;;;;;;;42.58;5.43;;;;;;;;;;6243321;23;20448;-60
2022/11/24 07:27:58;;;;;;;46.08;5.55;;;;;;;;;;6243815;23;20008;-60
2022/11/24 07:30:25;;;;;;;37.67;5.68;;;;;;;;;;6244272;23;20394;-60
2022/11/24 07:32:51;;;;;;;36.47;6.18;;;;;;;;;;6244657;23;20400;-60
2022/11/24 07:35:17;;;;;;;32.90;4.72;;;;;;;;;;6244495;23;20004;-60
2022/11/24 07:37:44;;;;;;;40.70;5.82;;;;;;;;;;6245019;23;20008;-60
2022/11/24 07:40:10;;;;;;;32.90;6.25;;;;;;;;;;6245426;23;20319;-60
2022/11/24 07:42:36;;;;;;;45.88;5.88;;;;;;;;;;6244931;23;20005;-60
2022/11/24 07:45:02;;;;;;;42.30;5.53;;;;;;;;;;6244833;23;20082;-60
2022/11/24 07:47:28;;;;;;;32.97;5.10;;;;;;;;;;6245462;23;20061;-60
2022/11/24 07:49:54;;;;;;;33.00;6.70;;;;;;;;;;6244765;23;20030;-60
2022/11/24 07:52:22;;;;;;;46.80;6.75;;;;;;;;;;6244819;23;20008;-60
2022/11/24 07:54:48;;;;;;;52.47;7.75;;;;;;;;;;6244253;22;20015;-60
2022/11/24 07:57:14;;;;;;;38.58;5.65;;;;;;;;;;6244520;23;20004;-60
2022/11/24 07:59:40;;;;;;;36.63;5.50;;;;;;;;;;6243384;22;20011;-60
2022/11/24 08:02:06;;;;;;;29.88;4.63;;;;;;;;;;6243812;23;20468;-60
2022/11/24 08:04:32;;;;;;;30.77;7.50;;;;;;;;;;6243674;23;20004;-60
2022/11/24 08:06:58;;;;;;;31.20;5.35;;;;;;;;;;6243713;23;20005;-60
2022/11/24 08:09:24;;;;;;;43.20;7.10;;;;;;;;;;6244056;23;20004;-60
2022/11/24 08:11:51;;;;;;;33.90;5.13;;;;;;;;;;6242266;23;20021;-60
2022/11/24 08:14:17;;;;;;;38.15;8.15;;;;;;;;;;6243336;23;20323;-60
2022/11/24 08:16:43;;;;;;;36.97;6.55;;;;;;;;;;6243467;23;20015;-60
2022/11/24 08:19:10;;;;;;;41.05;6.28;;;;;;;;;;6243791;23;20065;-60
2022/11/24 08:21:37;;;;;;;46.00;6.32;;;;;;;;;;6243938;22;20012;-60
2022/11/24 08:24:03;;;;;;;33.95;7.22;;;;;;;;;;6244205;22;20004;-60
2022/11/24 08:26:29;;;;;;;41.15;5.53;;;;;;;;;;6244970;23;20004;-60
2022/11/24 08:28:56;;;;;;;29.80;4.50;;;;;;;;;;6243878;23;20007;-60
2022/11/24 08:31:24;;;;;;;29.27;6.93;;;;;;;;;;6244825;23;20016;-60
2022/11/24 08:33:50;;;;;;;33.28;6.20;;;;;;;;;;6245056;22;20357;-60
2022/11/24 08:36:17;;;;;;;34.85;4.40;;;;;;;;;;6244686;23;20014;-60
2022/11/24 08:38:44;;;;;;;31.52;4.43;;;;;;;;;;6244037;23;20502;-60
2022/11/24 08:41:11;;;;;;;27.13;4.78;;;;;;;;;;6244511;23;20008;-60
2022/11/24 08:43:38;;;;;;;27.95;4.93;;;;;;;;;;6244257;23;20000;-60
2022/11/24 08:46:08;;;;;;;47.22;6.60;;;;;;;;;;6244446;23;20012;-60
2022/11/24 08:48:35;;;;;;;37.50;5.63;;;;;;;;;;6244971;23;20327;-60
2022/11/24 08:51:09;;;;;;;39.05;7.00;;;;;;;;;;6244438;23;20000;-60
2022/11/24 08:53:35;;;;;;;33.60;5.85;;;;;;;;;;6244811;22;20032;-60
2022/11/24 08:56:01;;;;;;;33.63;6.03;;;;;;;;;;6244090;23;20346;-60
2022/11/24 08:58:28;;;;;;;36.60;6.13;;;;;;;;;;6244807;23;20004;-60
2022/11/24 09:00:54;;;;;;;32.50;5.45;;;;;;;;;;6244072;23;20019;-60
2022/11/24 09:03:20;;;;;;;30.27;5.43;;;;;;;;;;6244622;23;20004;-60
2022/11/24 09:05:46;;;;;;;49.50;5.80;;;;;;;;;;6244358;23;20020;-60
2022/11/24 09:08:12;;;;;;;24.02;5.13;;;;;;;;;;6244094;23;20011;-60
2022/11/24 09:10:38;;;;;;;30.23;6.10;;;;;;;;;;6244082;23;20000;-60
2022/11/24 09:13:04;;;;;;;34.75;5.15;;;;;;;;;;6243972;23;20011;-60
2022/11/24 09:15:31;;;;;;;30.65;5.13;;;;;;;;;;6244412;23;20008;-60
2022/11/24 09:17:57;;;;;;;25.65;5.35;;;;;;;;;;6244232;23;20015;-59
2022/11/24 09:20:23;;;;;;;24.52;4.88;;;;;;;;;;6244213;23;20075;-60
2022/11/24 09:22:49;;;;;;;26.13;4.43;;;;;;;;;;6243854;23;20024;-60
2022/11/24 09:25:16;;;;;;;25.80;4.22;;;;;;;;;;6243527;23;20004;-60
2022/11/24 09:27:42;;;;;;;29.67;4.70;;;;;;;;;;6244351;23;20057;-60
2022/11/24 09:30:08;;;;;;;28.70;5.72;;;;;;;;;;6244085;23;20449;-60
2022/11/24 09:32:34;;;;;;;30.90;4.25;;;;;;;;;;6244448;23;20142;-60
2022/11/24 09:35:00;;;;;;;32.40;4.13;;;;;;;;;;6243769;23;20000;-60
2022/11/24 09:37:27;;;;;;;33.33;6.15;;;;;;;;;;6244007;23;20505;-60
2022/11/24 09:39:53;;;;;;;30.48;4.20;;;;;;;;;;6242221;23;20378;-60
2022/11/24 09:42:22;;;;;;;25.75;4.40;;;;;;;;;;6243949;23;20004;-59
2022/11/24 09:45:09;;;;;;;28.27;4.40;;;;;;;;;;6243760;23;20010;-59
2022/11/24 09:47:35;;;;;;;32.55;5.43;;;;;;;;;;6121183;23;20009;-60
2022/11/24 09:50:13;;;;;;;33.08;4.55;;;;;;;;;;6120785;23;20041;-60
2022/11/24 09:52:47;;;;;;;29.70;4.63;;;;;;;;;;6121709;23;20010;-60
2022/11/24 09:55:30;;;;;;;28.00;4.53;;;;;;;;;;6120606;23;20043;-60
2022/11/24 09:58:05;;;;;;;29.77;5.10;;;;;;;;;;6097120;23;20014;-60
2022/11/24 10:00:33;;;;;;;21.58;4.20;;;;;;;;;;6121436;23;20009;-60
2022/11/24 10:02:59;;;;;;;27.13;5.60;;;;;;;;;;6121673;23;20013;-60
2022/11/24 10:05:26;;;;;;;19.90;4.50;;;;;;;;;;6120613;23;20021;-60
2022/11/24 10:08:11;;;;;;;29.00;4.85;;;;;;;;;;6121203;23;20021;-60
2022/11/24 10:10:47;;;;;;;31.88;4.47;;;;;;;;;;6121455;23;20451;-60
2022/11/24 10:13:15;;;;;;;23.38;4.35;;;;;;;;;;6121723;23;20014;-60
2022/11/24 10:15:51;;;;;;;19.80;4.13;;;;;;;;;;6121557;23;20006;-60
2022/11/24 10:18:20;;;;;;;39.70;5.05;;;;;;;;;;6121291;23;20322;-60
2022/11/24 10:20:58;;;;;;;26.38;4.85;;;;;;;;;;6121602;23;20029;-60
2022/11/24 10:23:42;;;;;;;24.48;4.22;;;;;;;;;;6120735;23;20014;-60
2022/11/24 10:26:15;;;;;;;24.92;4.43;;;;;;;;;;6243306;22;20024;-60
2022/11/24 10:28:44;;;;;;;27.00;4.43;;;;;;;;;;6243731;23;20034;-60
2022/11/24 10:31:22;;;;;;;35.92;5.90;;;;;;;;;;6243899;23;20334;-60
2022/11/24 10:33:48;;;;;;;19.35;3.97;;;;;;;;;;6244288;23;20314;-60
2022/11/24 10:36:22;;;;;;;21.38;4.38;;;;;;;;;;6243698;23;20046;-60
2022/11/24 10:39:07;;;;;;;14.98;4.20;;;;;;;;;;6243337;23;20012;-60
2022/11/24 10:41:41;;;;;;;27.38;4.70;;;;;;;;;;6244306;23;20012;-60
2022/11/24 10:44:11;;;;;;;33.53;4.28;;;;;;;;;;6243799;23;20011;-60
2022/11/24 10:46:37;;;;;;;27.65;5.35;;;;;;;;;;6243455;23;20011;-60
2022/11/24 10:49:04;;;;;;;28.50;4.18;;;;;;;;;;6244269;23;20044;-60
2022/11/24 10:51:30;;;;;;;27.23;3.55;;;;;;;;;;6244074;23;20645;-60
2022/11/24 10:54:09;;;;;;;30.58;5.00;;;;;;;;;;6243620;23;20059;-60
2022/11/24 10:56:42;;;;;;;24.48;5.25;;;;;;;;;;6243875;23;20008;-60
2022/11/24 10:59:23;;;;;;;31.50;5.43;;;;;;;;;;6245859;23;20019;-60
2022/11/24 11:01:50;;;;;;;22.38;4.57;;;;;;;;;;6246064;23;20012;-60
2022/11/24 11:04:19;;;;;;;27.25;4.22;;;;;;;;;;6245523;23;20049;-60
2022/11/24 11:06:45;;;;;;;25.05;4.40;;;;;;;;;;6245321;23;20434;-60
2022/11/24 11:09:11;;;;;;;18.38;4.35;;;;;;;;;;6246042;23;20005;-60
2022/11/24 11:11:38;;;;;;;28.25;4.70;;;;;;;;;;6245733;23;20015;-60
2022/11/24 11:14:06;;;;;;;18.27;4.40;;;;;;;;;;6245765;23;20511;-60
2022/11/24 11:16:32;;;;;;;27.80;5.32;;;;;;;;;;6245232;23;20004;-60
2022/11/24 11:19:00;;;;;;;27.52;4.28;;;;;;;;;;6245684;23;20004;-60
2022/11/24 11:21:36;;;;;;;22.60;4.72;;;;;;;;;;6244942;23;20011;-60
2022/11/24 11:24:17;;;;;;;25.40;4.18;;;;;;;;;;6245817;23;20015;-60
2022/11/24 11:26:44;;;;;;;26.98;4.20;;;;;;;;;;6245303;23;20008;-60
2022/11/24 11:29:18;;;;;;;29.02;5.68;;;;;;;;;;6245858;22;20071;-60
2022/11/24 11:31:55;;;;;;;23.90;4.25;;;;;;;;;;6243967;23;20012;-60
2022/11/24 11:34:22;;;;;;;29.13;4.22;;;;;;;;;;6245229;23;20085;-60
2022/11/24 11:36:49;;;;;;;23.55;4.35;;;;;;;;;;6245030;23;20422;-60
2022/11/24 11:39:28;;;;;;;25.67;3.45;;;;;;;;;;6245442;23;20014;-60
2022/11/24 11:42:07;;;;;;;23.73;4.15;;;;;;;;;;6245596;22;20014;-60
2022/11/24 11:44:36;;;;;;;29.35;4.78;;;;;;;;;;6244922;23;20434;-60
2022/11/24 11:47:07;;;;;;;19.48;3.55;;;;;;;;;;6245616;23;19996;-61
2022/11/24 11:49:35;;;;;;;17.05;3.42;;;;;;;;;;6244072;23;20083;-60
2022/11/24 11:52:19;;;;;;;25.90;3.42;;;;;;;;;;6244929;23;20079;-61
2022/11/24 11:55:04;;;;;;;20.95;3.30;;;;;;;;;;6244652;23;20787;-61
2022/11/24 11:57:34;;;;;;;23.85;4.68;;;;;;;;;;6245086;23;20015;-61
2022/11/24 12:00:10;;;;;;;27.27;4.43;;;;;;;;;;6245244;23;20012;-61
2022/11/24 12:03:02;;;;;;;18.65;3.45;;;;;;;;;;6244764;23;20008;-61
2022/11/24 12:05:28;;;;;;;25.75;4.10;;;;;;;;;;6243984;23;20450;-61
2022/11/24 12:08:13;;;;;;;33.20;5.28;;;;;;;;;;6245165;23;20079;-61
2022/11/24 12:10:43;;;;;;;23.95;4.88;;;;;;;;;;6244409;23;20075;-61
2022/11/24 12:13:16;;;;;;;35.15;5.22;;;;;;;;;;6245443;23;20008;-61
2022/11/24 12:15:45;;;;;;;32.30;4.30;;;;;;;;;;6244001;23;20322;-60
2022/11/24 12:18:20;;;;;;;22.75;4.75;;;;;;;;;;6244797;23;20083;-60
2022/11/24 12:20:55;;;;;;;27.83;5.05;;;;;;;;;;6243742;23;20008;-60
2022/11/24 12:23:30;;;;;;;33.25;3.60;;;;;;;;;;6244918;23;20085;-60
2022/11/24 12:26:00;;;;;;;28.95;4.13;;;;;;;;;;6244949;23;20004;-60
2022/11/24 12:28:32;;;;;;;23.77;4.97;;;;;;;;;;6245354;23;20031;-60
2022/11/24 12:31:05;;;;;;;25.80;4.50;;;;;;;;;;6244922;23;20510;-60
2022/11/24 12:33:34;;;;;;;24.98;4.63;;;;;;;;;;6243232;23;20231;-61
2022/11/24 12:36:13;;;;;;;18.33;4.55;;;;;;;;;;6244067;23;20015;-60
2022/11/24 12:38:39;;;;;;;13.50;3.70;;;;;;;;;;6244307;23;20060;-60
2022/11/24 12:41:15;;;;;;;20.05;3.55;;;;;;;;;;6244925;23;20007;-60
2022/11/24 12:43:45;;;;;;;19.80;4.00;;;;;;;;;;6245426;23;20008;-61
2022/11/24 12:46:14;;;;;;;14.80;3.00;;;;;;;;;;6245575;23;20414;-60
2022/11/24 12:48:50;;;;;;;11.88;2.35;;;;;;;;;;6244623;23;20011;-60
2022/11/24 12:51:21;;;;;;;12.00;2.50;;;;;;;;;;6245567;23;20079;-60
2022/11/24 12:53:49;;;;;;;15.82;2.65;;;;;;;;;;6245432;23;20377;-60
2022/11/24 12:56:16;;;;;;;11.35;2.10;;;;;;;;;;6245539;23;20000;-60
2022/11/24 12:59:02;;;;;;;9.43;2.50;;;;;;;;;;6245220;23;20008;-60
2022/11/24 13:01:28;;;;;;;9.10;2.17;;;;;;;;;;6245663;23;20468;-60
2022/11/24 13:03:54;;;;;;;10.07;2.55;;;;;;;;;;6244899;23;20425;-60
2022/11/24 13:06:25;;;;;;;12.45;2.30;;;;;;;;;;6245332;23;20091;-60
2022/11/24 13:08:51;;;;;;;8.23;2.05;;;;;;;;;;6245083;23;20023;-60
2022/11/24 13:11:20;;;;;;;16.38;2.30;;;;;;;;;;6245621;23;20090;-60
2022/11/24 13:13:56;;;;;;;12.15;3.30;;;;;;;;;;6245169;23;20032;-60
2022/11/24 13:16:23;;;;;;;13.88;2.30;;;;;;;;;;6245485;22;20012;-61
2022/11/24 13:18:56;;;;;;;12.98;2.45;;;;;;;;;;6244960;23;20026;-60
2022/11/24 13:21:52;;;;;;;15.77;2.92;;;;;;;;;;6244933;23;20008;-60
2022/11/24 13:24:18;;;;;;;8.57;1.85;;;;;;;;;;6219886;23;20004;-61
2022/11/24 13:26:49;;;;;;;16.73;2.90;;;;;;;;;;6245318;23;20063;-61
2022/11/24 13:29:27;;;;;;;9.45;2.50;;;;;;;;;;6245388;23;20036;-60
2022/11/24 13:31:54;;;;;;;15.88;2.85;;;;;;;;;;6244898;22;20015;-61
2022/11/24 13:34:41;;;;;;;19.20;2.42;;;;;;;;;;6245466;23;20460;-60
2022/11/24 13:37:28;;;;;;;10.75;2.38;;;;;;;;;;6245268;23;20446;-61
2022/11/24 13:39:54;;;;;;;24.10;3.78;;;;;;;;;;6224846;22;20030;-61
2022/11/24 13:42:23;;;;;;;23.42;3.22;;;;;;;;;;6245212;23;20015;-61
2022/11/24 13:44:56;;;;;;;12.05;3.20;;;;;;;;;;6245216;22;20001;-60
2022/11/24 13:47:28;;;;;;;16.48;3.15;;;;;;;;;;6245096;23;20492;-60
2022/11/24 13:49:54;;;;;;;16.45;4.55;;;;;;;;;;6244788;23;20422;-60
2022/11/24 13:52:36;;;;;;;18.08;3.28;;;;;;;;;;6245403;23;20042;-61
2022/11/24 13:55:22;;;;;;;17.58;3.35;;;;;;;;;;6245169;23;20015;-61
2022/11/24 13:58:18;;;;;;;18.40;3.10;;;;;;;;;;6243277;23;20319;-64
2022/11/24 14:01:03;;;;;;;27.38;4.85;;;;;;;;;;6218848;23;20426;-64
2022/11/24 14:03:34;;;;;;;17.58;3.05;;;;;;;;;;6245370;23;20377;-64
2022/11/24 14:06:01;;;;;;;32.83;4.40;;;;;;;;;;6244624;23;20065;-64
2022/11/24 14:08:36;;;;;;;24.98;5.20;;;;;;;;;;6244976;23;20434;-64
2022/11/24 14:11:03;;;;;;;21.98;3.60;;;;;;;;;;6245063;23;20008;-64
2022/11/24 14:13:30;;;;;;;27.20;4.55;;;;;;;;;;6245181;23;20071;-64
2022/11/24 14:16:01;;;;;;;20.38;5.32;;;;;;;;;;6244435;23;20019;-64
2022/11/24 14:18:33;;;;;;;23.00;3.63;;;;;;;;;;6245136;23;20050;-64
2022/11/24 14:21:00;;;;;;;22.35;4.10;;;;;;;;;;6244487;23;20012;-64
2022/11/24 14:23:26;;;;;;;31.27;4.57;;;;;;;;;;6245106;23;20008;-64
2022/11/24 14:25:53;;;;;;;17.27;3.72;;;;;;;;;;6244657;23;20007;-64
2022/11/24 14:28:22;;;;;;;23.90;5.70;;;;;;;;;;6245129;22;20000;-64
2022/11/24 14:30:48;;;;;;;13.63;3.35;;;;;;;;;;6244466;23;20012;-64
2022/11/24 14:33:17;;;;;;;31.35;4.88;;;;;;;;;;6244744;23;20007;-64
2022/11/24 14:35:44;;;;;;;28.60;4.07;;;;;;;;;;6244538;22;20075;-64
2022/11/24 14:38:11;;;;;;;22.92;4.88;;;;;;;;;;6245066;23;20410;-64
2022/11/24 14:40:46;;;;;;;19.98;2.85;;;;;;;;;;6245173;23;20374;-64
2022/11/24 14:43:21;;;;;;;20.85;3.22;;;;;;;;;;6245220;22;20330;-64